Time;durP1;ratioP1;P1;durP2;ratioP2;P2;SDS_P1;SDS_P2;PMS_P1;PMS_P2;Temp;Humidity;BMP_temperature;BMP_pressure;BME280_temperature;BME280_humidity;BME280_pressure;Samples;Min_cycle;Max_cycle;Signal;HPM_P1;HPM_P2
2023/01/29 00:00:51;;;;;;;3.47;1.90;;;;;;;;;;8291343;28;20037;-62
2023/01/29 00:04:51;;;;;;;1.77;1.67;;;;;;;;;;8290757;28;20313;-62
2023/01/29 00:08:51;;;;;;;1.90;1.75;;;;;;;;;;8291633;28;20422;-62
2023/01/29 00:12:52;;;;;;;2.28;2.00;;;;;;;;;;8291771;28;20398;-62
2023/01/29 00:16:52;;;;;;;2.95;2.10;;;;;;;;;;8289117;28;20124;-62
2023/01/29 00:20:52;;;;;;;2.90;2.17;;;;;;;;;;8291707;28;20203;-63
2023/01/29 00:24:52;;;;;;;2.07;1.87;;;;;;;;;;8288795;28;20033;-62
2023/01/29 00:28:53;;;;;;;5.53;1.88;;;;;;;;;;8292489;28;20306;-62
2023/01/29 00:32:53;;;;;;;2.20;2.00;;;;;;;;;;8287250;28;20034;-62
2023/01/29 00:37:03;;;;;;;2.70;2.00;;;;;;;;;;8289756;28;20052;-62
2023/01/29 00:45:23;;;;;;;4.75;2.50;;;;;;;;;;8291247;28;20060;-62
2023/01/29 00:49:24;;;;;;;4.15;2.10;;;;;;;;;;8289570;28;20017;-62
2023/01/29 00:53:24;;;;;;;2.00;1.90;;;;;;;;;;8288876;28;20401;-62
2023/01/29 00:57:26;;;;;;;2.33;2.15;;;;;;;;;;8287161;28;21672;-62
2023/01/29 01:05:45;;;;;;;2.42;1.90;;;;;;;;;;8290890;28;20137;-62
2023/01/29 01:14:03;;;;;;;3.58;1.90;;;;;;;;;;8288733;28;20040;-62
2023/01/29 01:18:04;;;;;;;3.17;2.13;;;;;;;;;;8284029;28;20489;-62
2023/01/29 01:22:04;;;;;;;3.88;2.33;;;;;;;;;;8285964;28;20060;-62
2023/01/29 01:26:07;;;;;;;3.15;2.10;;;;;;;;;;8284858;28;20454;-62
2023/01/29 01:30:09;;;;;;;4.20;2.10;;;;;;;;;;8286059;28;20030;-62
2023/01/29 01:34:09;;;;;;;2.63;2.15;;;;;;;;;;8289099;28;20501;-62
2023/01/29 01:38:10;;;;;;;3.20;2.00;;;;;;;;;;8287823;28;20382;-62
2023/01/29 01:42:11;;;;;;;2.83;2.20;;;;;;;;;;8288491;28;21287;-62
2023/01/29 01:46:12;;;;;;;2.97;1.95;;;;;;;;;;8287915;28;20645;-63
2023/01/29 01:50:12;;;;;;;2.20;2.00;;;;;;;;;;8288026;28;20025;-62
2023/01/29 01:54:14;;;;;;;2.30;1.80;;;;;;;;;;8292092;28;20560;-62
2023/01/29 01:58:18;;;;;;;2.35;1.83;;;;;;;;;;8294899;28;20615;-62
2023/01/29 02:10:57;;;;;;;2.10;1.80;;;;;;;;;;8295273;28;20028;-62
2023/01/29 02:14:58;;;;;;;1.67;1.58;;;;;;;;;;8293769;28;20021;-62
2023/01/29 02:18:58;;;;;;;1.80;1.70;;;;;;;;;;8294561;28;20041;-62
2023/01/29 02:23:08;;;;;;;1.75;1.65;;;;;;;;;;8293813;28;20072;-62
2023/01/29 02:27:12;;;;;;;2.47;1.65;;;;;;;;;;8293424;28;20283;-62
2023/01/29 02:31:12;;;;;;;2.17;1.98;;;;;;;;;;8300073;28;20350;-62
2023/01/29 02:35:31;;;;;;;2.13;1.90;;;;;;;;;;8297341;28;20029;-62
2023/01/29 02:39:36;;;;;;;2.75;1.90;;;;;;;;;;8296327;28;20108;-62
2023/01/29 02:43:41;;;;;;;2.28;2.08;;;;;;;;;;8294405;28;20084;-62
2023/01/29 02:47:47;;;;;;;2.72;2.53;;;;;;;;;;8292923;28;20113;-62
2023/01/29 02:51:57;;;;;;;2.58;2.38;;;;;;;;;;8292841;28;20603;-62
2023/01/29 02:56:01;;;;;;;2.33;2.13;;;;;;;;;;8289167;28;20037;-62
2023/01/29 03:00:05;;;;;;;3.67;2.22;;;;;;;;;;8290775;28;20041;-62
2023/01/29 03:04:09;;;;;;;3.53;2.38;;;;;;;;;;8290284;28;20073;-62
2023/01/29 03:08:10;;;;;;;5.10;2.60;;;;;;;;;;8291137;28;20377;-65
2023/01/29 03:12:32;;;;;;;3.25;2.28;;;;;;;;;;8292652;28;20021;-62
2023/01/29 03:16:46;;;;;;;3.13;2.30;;;;;;;;;;8289035;28;20049;-62
2023/01/29 03:20:49;;;;;;;1.88;1.77;;;;;;;;;;8290454;28;20076;-62
2023/01/29 03:33:39;;;;;;;2.50;1.70;;;;;;;;;;8292225;28;20067;-62
2023/01/29 03:37:45;;;;;;;1.58;1.48;;;;;;;;;;8293441;28;20040;-62
2023/01/29 03:41:49;;;;;;;3.13;1.80;;;;;;;;;;8294252;28;20029;-62
2023/01/29 03:45:57;;;;;;;2.08;1.80;;;;;;;;;;8294283;28;20041;-62
2023/01/29 03:50:03;;;;;;;2.67;1.90;;;;;;;;;;8292629;28;20048;-63
2023/01/29 03:54:09;;;;;;;2.10;1.90;;;;;;;;;;8290988;28;20130;-62
2023/01/29 03:58:19;;;;;;;2.50;2.30;;;;;;;;;;8291811;28;20449;-62
2023/01/29 04:02:26;;;;;;;3.50;2.58;;;;;;;;;;8291152;28;20041;-62
2023/01/29 04:06:29;;;;;;;3.78;2.45;;;;;;;;;;8290454;28;20110;-62
2023/01/29 04:10:30;;;;;;;5.22;2.67;;;;;;;;;;8290469;28;20395;-62
2023/01/29 04:14:31;;;;;;;3.05;2.67;;;;;;;;;;8288154;28;20038;-62
2023/01/29 04:18:31;;;;;;;3.50;2.35;;;;;;;;;;8289764;28;20582;-62
2023/01/29 04:22:33;;;;;;;2.30;2.10;;;;;;;;;;8291122;28;20032;-62
2023/01/29 04:26:53;;;;;;;4.55;2.47;;;;;;;;;;8290518;28;20817;-62
2023/01/29 04:30:58;;;;;;;2.53;2.30;;;;;;;;;;8288864;28;20235;-62
2023/01/29 04:35:00;;;;;;;3.75;2.15;;;;;;;;;;8289446;28;20051;-62
2023/01/29 04:39:19;;;;;;;3.80;2.30;;;;;;;;;;8287938;28;20047;-62
2023/01/29 04:43:26;;;;;;;4.35;1.98;;;;;;;;;;8289439;28;20510;-62
2023/01/29 04:47:27;;;;;;;2.85;2.17;;;;;;;;;;8288833;28;20161;-62
2023/01/29 04:51:32;;;;;;;4.10;2.33;;;;;;;;;;8289108;28;20036;-62
2023/01/29 04:55:41;;;;;;;3.08;1.80;;;;;;;;;;8289037;28;20103;-62
2023/01/29 04:59:44;;;;;;;3.45;2.38;;;;;;;;;;8287756;28;20029;-62
2023/01/29 05:03:46;;;;;;;3.78;2.25;;;;;;;;;;8288547;28;20523;-62
2023/01/29 05:07:47;;;;;;;3.08;2.10;;;;;;;;;;8288982;28;20402;-63
2023/01/29 05:11:48;;;;;;;2.70;1.83;;;;;;;;;;8288635;28;20580;-62
2023/01/29 05:16:04;;;;;;;2.17;1.90;;;;;;;;;;8287623;28;20622;-62
2023/01/29 05:20:04;;;;;;;2.60;2.33;;;;;;;;;;8288839;28;20041;-62
2023/01/29 05:24:09;;;;;;;2.65;2.30;;;;;;;;;;8287538;28;20096;-62
2023/01/29 05:28:18;;;;;;;;;;;;;;;;;;8288985;28;20059;-62
2023/01/29 05:32:18;;;;;;;2.10;1.90;;;;;;;;;;8287255;28;20464;-62
2023/01/29 05:36:18;;;;;;;2.10;1.90;;;;;;;;;;8289917;28;20033;-62
2023/01/29 05:40:18;;;;;;;2.55;2.35;;;;;;;;;;8290187;28;20033;-62
2023/01/29 05:44:19;;;;;;;2.60;2.40;;;;;;;;;;8287620;28;20466;-63
2023/01/29 05:48:19;;;;;;;3.10;2.38;;;;;;;;;;8289266;28;20030;-63
2023/01/29 05:52:19;;;;;;;4.40;2.50;;;;;;;;;;8288714;28;20156;-62
2023/01/29 05:56:19;;;;;;;3.17;2.45;;;;;;;;;;8288387;28;20280;-62
2023/01/29 06:00:20;;;;;;;3.45;2.30;;;;;;;;;;8288142;28;20036;-62
2023/01/29 06:04:20;;;;;;;3.45;2.40;;;;;;;;;;8288672;28;20297;-62
2023/01/29 06:08:20;;;;;;;4.25;1.90;;;;;;;;;;8288252;28;20155;-61
2023/01/29 06:12:20;;;;;;;2.30;2.10;;;;;;;;;;8289307;28;20149;-62
2023/01/29 06:16:20;;;;;;;2.17;2.03;;;;;;;;;;8287393;28;20048;-62
2023/01/29 06:20:21;;;;;;;2.70;2.50;;;;;;;;;;8290895;28;20626;-62
2023/01/29 06:24:21;;;;;;;2.65;2.45;;;;;;;;;;8288610;28;20051;-62
2023/01/29 06:28:21;;;;;;;2.58;2.38;;;;;;;;;;8287770;28;20025;-61
2023/01/29 06:32:21;;;;;;;3.65;2.60;;;;;;;;;;8286726;28;20417;-62
2023/01/29 06:36:22;;;;;;;3.92;2.65;;;;;;;;;;8286451;28;20021;-62
2023/01/29 06:40:22;;;;;;;4.13;2.78;;;;;;;;;;8290660;28;20029;-61
2023/01/29 06:44:22;;;;;;;3.55;2.67;;;;;;;;;;8294720;28;20026;-61
2023/01/29 06:48:23;;;;;;;2.40;2.20;;;;;;;;;;8291484;28;20095;-62
2023/01/29 06:52:27;;;;;;;3.22;2.58;;;;;;;;;;8293319;28;20025;-62
2023/01/29 06:56:27;;;;;;;;;;;;;;;;;;8293513;28;20075;-62
2023/01/29 07:00:27;;;;;;;4.97;3.72;;;;;;;;;;8293090;28;20274;-62
2023/01/29 07:04:28;;;;;;;3.75;2.83;;;;;;;;;;8294284;28;20040;-62
2023/01/29 07:08:28;;;;;;;7.13;6.40;;;;;;;;;;8293282;28;20099;-62
2023/01/29 07:12:28;;;;;;;4.85;4.20;;;;;;;;;;8291648;28;20276;-62
2023/01/29 07:16:28;;;;;;;3.08;2.85;;;;;;;;;;8289682;28;20049;-62
2023/01/29 07:20:29;;;;;;;6.90;3.00;;;;;;;;;;8288803;28;20037;-62
2023/01/29 07:24:29;;;;;;;2.88;2.63;;;;;;;;;;8289673;28;20040;-62
2023/01/29 07:28:29;;;;;;;3.20;2.90;;;;;;;;;;8293396;28;20029;-62
2023/01/29 07:32:30;;;;;;;3.33;3.03;;;;;;;;;;8289340;28;20099;-63
2023/01/29 07:36:30;;;;;;;3.80;2.47;;;;;;;;;;8291386;28;20487;-62
2023/01/29 07:40:30;;;;;;;3.00;2.70;;;;;;;;;;8289687;28;20021;-62
2023/01/29 07:44:30;;;;;;;6.60;4.55;;;;;;;;;;8288893;28;20771;-62
2023/01/29 07:48:30;;;;;;;4.93;3.72;;;;;;;;;;8288705;28;20036;-62
2023/01/29 07:52:32;;;;;;;3.85;3.38;;;;;;;;;;8289731;28;20428;-62
2023/01/29 07:56:32;;;;;;;4.18;3.08;;;;;;;;;;8289255;28;20024;-62
2023/01/29 08:00:32;;;;;;;8.82;6.38;;;;;;;;;;8287709;28;20889;-62
2023/01/29 08:04:32;;;;;;;7.85;6.28;;;;;;;;;;8289655;28;20427;-62
2023/01/29 08:08:33;;;;;;;5.00;4.32;;;;;;;;;;8288454;28;20075;-62
2023/01/29 08:12:33;;;;;;;10.40;6.05;;;;;;;;;;8290663;28;20079;-62
2023/01/29 08:16:33;;;;;;;13.35;6.82;;;;;;;;;;8287958;28;20269;-62
2023/01/29 08:20:34;;;;;;;8.25;5.20;;;;;;;;;;8288784;28;20037;-62
2023/01/29 08:24:34;;;;;;;8.07;4.97;;;;;;;;;;8288119;28;20199;-62
2023/01/29 08:28:36;;;;;;;5.50;4.20;;;;;;;;;;8284304;28;20018;-62
2023/01/29 08:32:36;;;;;;;5.35;3.55;;;;;;;;;;8288354;28;20037;-62
2023/01/29 08:36:37;;;;;;;3.03;2.72;;;;;;;;;;8287627;28;20033;-62
2023/01/29 08:40:37;;;;;;;3.53;3.22;;;;;;;;;;8286617;28;21064;-62
2023/01/29 08:44:37;;;;;;;2.92;2.70;;;;;;;;;;8286778;28;20390;-62
2023/01/29 08:48:37;;;;;;;3.17;2.40;;;;;;;;;;8287064;28;20032;-62
2023/01/29 08:52:37;;;;;;;2.65;2.42;;;;;;;;;;8286645;28;20026;-62
2023/01/29 08:56:38;;;;;;;3.83;2.38;;;;;;;;;;8285967;28;20079;-62
2023/01/29 09:00:38;;;;;;;2.70;2.50;;;;;;;;;;8286322;28;20037;-62
2023/01/29 09:04:38;;;;;;;3.15;2.78;;;;;;;;;;8289342;28;20061;-63
2023/01/29 09:08:38;;;;;;;4.13;2.78;;;;;;;;;;8287631;28;20017;-62
2023/01/29 09:12:38;;;;;;;3.72;2.80;;;;;;;;;;8286917;28;20026;-62
2023/01/29 09:16:39;;;;;;;6.72;3.03;;;;;;;;;;8288319;28;20632;-62
2023/01/29 09:20:39;;;;;;;5.25;3.17;;;;;;;;;;8286832;28;20068;-62
2023/01/29 09:24:39;;;;;;;4.15;2.80;;;;;;;;;;8288740;28;20751;-63
2023/01/29 09:28:39;;;;;;;3.70;3.13;;;;;;;;;;8285415;28;20272;-62
2023/01/29 09:32:40;;;;;;;4.13;3.30;;;;;;;;;;8286659;28;20052;-63
2023/01/29 09:36:40;;;;;;;3.53;3.13;;;;;;;;;;8287654;28;20057;-63
2023/01/29 09:40:40;;;;;;;5.45;3.30;;;;;;;;;;8289002;28;20057;-62
2023/01/29 09:44:59;;;;;;;6.38;3.72;;;;;;;;;;8288563;28;20044;-62
2023/01/29 09:49:02;;;;;;;2.90;2.60;;;;;;;;;;8287949;28;20037;-62
2023/01/29 09:53:02;;;;;;;3.75;2.90;;;;;;;;;;8289118;28;20029;-62
2023/01/29 09:57:04;;;;;;;2.78;2.58;;;;;;;;;;8285007;28;20530;-62
2023/01/29 10:01:20;;;;;;;4.57;3.22;;;;;;;;;;8287767;28;21029;-62
2023/01/29 10:05:59;;;;;;;6.95;5.00;;;;;;;;;;8290099;28;20581;-62
2023/01/29 10:10:16;;;;;;;7.07;4.43;;;;;;;;;;8215011;28;20368;-62
2023/01/29 10:14:23;;;;;;;6.30;4.57;;;;;;;;;;8256061;28;20038;-62
2023/01/29 10:18:23;;;;;;;4.22;2.85;;;;;;;;;;8291311;28;20605;-62
2023/01/29 10:22:46;;;;;;;3.58;2.70;;;;;;;;;;8294496;28;20022;-62
2023/01/29 10:26:47;;;;;;;2.90;2.60;;;;;;;;;;8289927;28;20034;-62
2023/01/29 10:30:53;;;;;;;3.92;3.00;;;;;;;;;;8297501;28;20040;-62
2023/01/29 10:34:56;;;;;;;3.38;3.08;;;;;;;;;;8327591;28;20657;-62
2023/01/29 10:38:56;;;;;;;2.90;2.58;;;;;;;;;;8325319;28;20024;-62
2023/01/29 10:43:03;;;;;;;3.13;2.40;;;;;;;;;;8326251;28;20653;-62
2023/01/29 10:47:27;;;;;;;2.45;2.25;;;;;;;;;;8326365;28;20363;-63
2023/01/29 10:51:59;;;;;;;4.53;3.23;;;;;;;;;;8324858;28;20108;-62
2023/01/29 10:56:02;;;;;;;3.85;3.00;;;;;;;;;;8313789;28;20059;-62
2023/01/29 11:00:12;;;;;;;4.50;3.20;;;;;;;;;;8324836;28;20456;-63
2023/01/29 11:04:12;;;;;;;5.80;3.40;;;;;;;;;;8323851;28;20079;-62
2023/01/29 11:08:16;;;;;;;7.05;3.67;;;;;;;;;;8324765;28;20032;-62
2023/01/29 11:12:19;;;;;;;6.95;3.95;;;;;;;;;;8319568;28;20013;-62
2023/01/29 11:16:19;;;;;;;5.38;3.83;;;;;;;;;;8321772;28;20565;-62
2023/01/29 11:20:26;;;;;;;11.45;4.28;;;;;;;;;;8320572;28;20032;-63
2023/01/29 11:24:27;;;;;;;4.18;3.42;;;;;;;;;;8322938;28;20508;-63
2023/01/29 11:28:36;;;;;;;4.10;3.03;;;;;;;;;;8322750;28;20412;-62
2023/01/29 11:32:36;;;;;;;3.50;2.90;;;;;;;;;;8322646;28;20041;-62
2023/01/29 11:36:37;;;;;;;4.22;3.25;;;;;;;;;;8326910;28;20083;-63
2023/01/29 11:40:38;;;;;;;6.28;4.40;;;;;;;;;;8331512;28;20061;-62
2023/01/29 11:44:39;;;;;;;5.28;4.13;;;;;;;;;;8324601;28;20653;-63
2023/01/29 11:48:44;;;;;;;5.55;3.92;;;;;;;;;;8320247;28;20388;-63
2023/01/29 11:52:44;;;;;;;5.82;3.22;;;;;;;;;;8323983;28;20032;-62
2023/01/29 11:56:46;;;;;;;4.20;3.42;;;;;;;;;;8321399;28;20488;-63
2023/01/29 12:00:48;;;;;;;4.18;3.40;;;;;;;;;;8322476;28;20036;-63
2023/01/29 12:04:49;;;;;;;3.38;3.08;;;;;;;;;;8323609;28;20182;-63
2023/01/29 12:08:54;;;;;;;4.45;3.83;;;;;;;;;;8323133;28;20833;-63
2023/01/29 12:13:03;;;;;;;5.05;3.50;;;;;;;;;;8324886;28;20128;-63
2023/01/29 12:17:25;;;;;;;5.68;3.72;;;;;;;;;;8324369;28;20045;-63
2023/01/29 12:21:44;;;;;;;6.82;3.53;;;;;;;;;;8323307;28;20025;-63
2023/01/29 12:25:56;;;;;;;5.13;3.47;;;;;;;;;;8325216;28;20055;-63
2023/01/29 12:30:02;;;;;;;4.07;3.45;;;;;;;;;;8322914;28;20810;-63
2023/01/29 12:34:05;;;;;;;6.28;3.75;;;;;;;;;;8324377;28;20147;-63
2023/01/29 12:38:09;;;;;;;3.35;3.05;;;;;;;;;;8323401;28;20117;-63
2023/01/29 12:42:18;;;;;;;5.50;3.50;;;;;;;;;;8321668;28;20110;-62
2023/01/29 12:46:25;;;;;;;4.65;3.42;;;;;;;;;;8322234;28;20033;-63
2023/01/29 12:50:31;;;;;;;5.88;3.95;;;;;;;;;;8323469;28;20075;-63
2023/01/29 12:54:40;;;;;;;6.35;3.90;;;;;;;;;;8322574;28;20017;-63
2023/01/29 12:58:45;;;;;;;5.13;3.63;;;;;;;;;;8323115;28;20027;-63
2023/01/29 13:02:54;;;;;;;3.83;3.40;;;;;;;;;;8313232;28;20041;-63
2023/01/29 13:07:04;;;;;;;5.38;3.17;;;;;;;;;;8322182;28;20244;-63
2023/01/29 13:11:09;;;;;;;3.67;3.15;;;;;;;;;;8323407;28;20029;-63
2023/01/29 13:15:16;;;;;;;5.10;3.40;;;;;;;;;;8322361;28;20029;-62
2023/01/29 13:19:33;;;;;;;7.40;3.38;;;;;;;;;;8321596;28;20036;-63
2023/01/29 13:23:38;;;;;;;5.45;4.00;;;;;;;;;;8322543;28;20025;-62
2023/01/29 13:27:38;;;;;;;;;;;;;;;;;;8323068;28;20024;-62
2023/01/29 13:31:40;;;;;;;5.25;3.53;;;;;;;;;;8321578;28;19917;-64
2023/01/29 13:35:41;;;;;;;3.97;3.50;;;;;;;;;;8322236;28;20389;-63
2023/01/29 13:39:46;;;;;;;7.90;3.55;;;;;;;;;;8322685;28;20024;-63
2023/01/29 13:43:48;;;;;;;3.70;3.40;;;;;;;;;;8322545;28;20435;-62
2023/01/29 13:47:49;;;;;;;4.40;3.70;;;;;;;;;;8320897;28;20527;-62
2023/01/29 13:51:50;;;;;;;5.68;4.22;;;;;;;;;;8329887;28;20163;-63
2023/01/29 13:55:50;;;;;;;6.00;3.63;;;;;;;;;;8329856;28;20094;-62
2023/01/29 13:59:51;;;;;;;4.78;3.85;;;;;;;;;;8328274;28;20494;-62
2023/01/29 14:03:52;;;;;;;5.35;3.97;;;;;;;;;;8328440;28;20580;-65
2023/01/29 14:07:52;;;;;;;5.10;3.53;;;;;;;;;;8327613;28;20472;-62
2023/01/29 14:11:53;;;;;;;7.20;3.80;;;;;;;;;;8328596;28;20017;-63
2023/01/29 14:15:56;;;;;;;6.43;4.00;;;;;;;;;;8327606;28;20285;-63
2023/01/29 14:20:14;;;;;;;4.38;3.63;;;;;;;;;;8328231;28;20114;-62
2023/01/29 14:24:16;;;;;;;3.80;3.33;;;;;;;;;;8327819;28;20390;-63
2023/01/29 14:28:24;;;;;;;4.95;3.70;;;;;;;;;;8327895;28;20061;-62
2023/01/29 14:32:25;;;;;;;4.97;4.03;;;;;;;;;;8328608;28;20417;-62
2023/01/29 14:36:25;;;;;;;4.40;3.38;;;;;;;;;;8326894;28;20024;-63
2023/01/29 14:40:28;;;;;;;4.55;3.33;;;;;;;;;;8326760;28;20037;-63
2023/01/29 14:44:44;;;;;;;4.78;3.78;;;;;;;;;;8326517;28;20029;-62
2023/01/29 14:48:46;;;;;;;4.57;3.88;;;;;;;;;;8327870;28;20136;-62
2023/01/29 14:52:47;;;;;;;6.32;4.60;;;;;;;;;;8329519;28;20383;-63
2023/01/29 14:56:55;;;;;;;7.88;5.75;;;;;;;;;;8329068;28;20017;-62
2023/01/29 15:00:57;;;;;;;8.55;6.38;;;;;;;;;;8326547;28;20032;-62
2023/01/29 15:04:58;;;;;;;11.45;6.65;;;;;;;;;;8328423;28;20028;-62
2023/01/29 15:08:58;;;;;;;9.10;4.88;;;;;;;;;;8326936;28;20060;-62
2023/01/29 15:12:58;;;;;;;6.32;4.78;;;;;;;;;;8324383;28;20024;-63
2023/01/29 15:17:05;;;;;;;8.55;6.45;;;;;;;;;;8325291;28;20255;-62
2023/01/29 15:21:15;;;;;;;9.63;6.18;;;;;;;;;;8325644;28;20035;-62
2023/01/29 15:25:17;;;;;;;7.72;5.97;;;;;;;;;;8326843;28;20059;-62
2023/01/29 15:29:21;;;;;;;9.85;5.97;;;;;;;;;;8325436;28;20033;-62
2023/01/29 15:33:22;;;;;;;12.50;7.13;;;;;;;;;;8326280;28;20049;-62
2023/01/29 15:37:30;;;;;;;8.43;5.40;;;;;;;;;;8324623;28;20020;-62
2023/01/29 15:41:30;;;;;;;6.47;4.90;;;;;;;;;;8325598;28;20418;-62
2023/01/29 15:45:31;;;;;;;5.00;4.25;;;;;;;;;;8324888;28;20595;-62
2023/01/29 15:49:33;;;;;;;5.43;4.10;;;;;;;;;;8325091;28;20035;-62
2023/01/29 15:53:35;;;;;;;4.47;3.50;;;;;;;;;;8324681;28;20021;-62
2023/01/29 15:57:36;;;;;;;5.35;4.20;;;;;;;;;;8324463;28;20145;-62
2023/01/29 16:01:36;;;;;;;4.20;3.70;;;;;;;;;;8324792;28;20593;-62
2023/01/29 16:05:36;;;;;;;6.35;4.38;;;;;;;;;;8326025;28;20021;-62
2023/01/29 16:09:37;;;;;;;4.43;4.00;;;;;;;;;;8324022;28;20029;-62
2023/01/29 16:13:42;;;;;;;4.93;4.28;;;;;;;;;;8323777;28;20029;-63
2023/01/29 16:17:43;;;;;;;4.88;4.38;;;;;;;;;;8325335;28;20429;-62
2023/01/29 16:21:44;;;;;;;4.90;4.10;;;;;;;;;;8324340;28;20368;-62
2023/01/29 16:25:46;;;;;;;6.97;4.80;;;;;;;;;;8324270;28;20356;-62
2023/01/29 16:29:46;;;;;;;12.50;7.32;;;;;;;;;;8321289;28;20021;-62
2023/01/29 16:33:48;;;;;;;9.68;6.65;;;;;;;;;;8322109;28;20082;-62
2023/01/29 16:37:49;;;;;;;8.05;5.32;;;;;;;;;;8323528;28;20500;-62
2023/01/29 16:42:16;;;;;;;8.07;5.55;;;;;;;;;;8323994;28;20029;-62
2023/01/29 16:46:19;;;;;;;9.77;6.13;;;;;;;;;;8313921;28;20040;-62
2023/01/29 16:50:32;;;;;;;9.00;5.95;;;;;;;;;;8323003;28;20013;-62
2023/01/29 16:54:32;;;;;;;8.20;5.53;;;;;;;;;;8322038;28;20056;-62
2023/01/29 16:58:33;;;;;;;8.35;5.60;;;;;;;;;;8324490;28;20033;-62
2023/01/29 17:02:37;;;;;;;8.38;5.15;;;;;;;;;;8321946;28;20094;-63
2023/01/29 17:06:38;;;;;;;9.30;6.90;;;;;;;;;;8321765;28;20484;-62
2023/01/29 17:10:45;;;;;;;8.88;6.25;;;;;;;;;;8322555;28;20063;-62
2023/01/29 17:14:56;;;;;;;8.18;5.57;;;;;;;;;;8323829;28;20025;-62
2023/01/29 17:18:57;;;;;;;10.15;5.70;;;;;;;;;;8318846;28;20532;-62
2023/01/29 17:22:57;;;;;;;7.30;5.78;;;;;;;;;;8323316;28;20441;-62
2023/01/29 17:26:58;;;;;;;9.20;5.40;;;;;;;;;;8321547;28;20024;-62
2023/01/29 17:30:59;;;;;;;8.65;6.38;;;;;;;;;;8320726;28;20033;-62
2023/01/29 17:34:59;;;;;;;11.95;7.35;;;;;;;;;;8321935;28;20579;-62
2023/01/29 17:39:00;;;;;;;8.70;6.47;;;;;;;;;;8320929;28;20029;-62
2023/01/29 17:43:00;;;;;;;8.85;6.05;;;;;;;;;;8323158;28;20040;-62
2023/01/29 17:47:00;;;;;;;9.82;6.32;;;;;;;;;;8321545;28;20071;-62
2023/01/29 17:51:02;;;;;;;9.98;5.75;;;;;;;;;;8321271;28;20025;-62
2023/01/29 17:55:02;;;;;;;11.00;6.82;;;;;;;;;;8311236;28;20025;-62
2023/01/29 17:59:10;;;;;;;8.57;6.27;;;;;;;;;;8322230;28;20067;-63
2023/01/29 18:03:10;;;;;;;11.27;6.60;;;;;;;;;;8314816;28;20291;-62
2023/01/29 18:07:10;;;;;;;9.77;6.68;;;;;;;;;;8320502;28;21044;-62
2023/01/29 18:11:11;;;;;;;13.32;7.80;;;;;;;;;;8321027;28;20141;-62
2023/01/29 18:15:11;;;;;;;9.75;6.78;;;;;;;;;;8321583;28;20677;-62
2023/01/29 18:19:12;;;;;;;11.18;7.57;;;;;;;;;;8322968;28;20143;-62
2023/01/29 18:23:12;;;;;;;12.43;8.05;;;;;;;;;;8322643;28;20036;-62
2023/01/29 18:27:12;;;;;;;21.65;9.30;;;;;;;;;;8321336;28;20107;-62
2023/01/29 18:31:12;;;;;;;13.95;8.65;;;;;;;;;;8323664;28;20555;-62
2023/01/29 18:35:13;;;;;;;13.40;8.30;;;;;;;;;;8328170;28;20025;-62
2023/01/29 18:39:13;;;;;;;11.80;8.15;;;;;;;;;;8332516;28;20655;-62
2023/01/29 18:43:14;;;;;;;11.98;8.20;;;;;;;;;;8332427;28;20028;-61
2023/01/29 18:47:14;;;;;;;13.13;8.17;;;;;;;;;;8331663;28;20037;-62
2023/01/29 18:51:14;;;;;;;12.27;8.60;;;;;;;;;;8332359;28;20342;-62
2023/01/29 18:55:15;;;;;;;13.57;8.32;;;;;;;;;;8331795;28;20493;-62
2023/01/29 18:59:15;;;;;;;15.00;9.10;;;;;;;;;;8333278;28;20064;-62
2023/01/29 19:03:15;;;;;;;14.30;9.15;;;;;;;;;;8330818;28;20573;-62
2023/01/29 19:07:15;;;;;;;13.10;9.30;;;;;;;;;;8331503;28;20029;-62
2023/01/29 19:11:16;;;;;;;16.10;9.95;;;;;;;;;;8332806;28;20624;-62
2023/01/29 19:15:19;;;;;;;14.15;10.07;;;;;;;;;;8331388;28;20017;-63
2023/01/29 19:19:19;;;;;;;16.30;10.00;;;;;;;;;;8329796;28;20024;-63
2023/01/29 19:23:20;;;;;;;14.07;9.68;;;;;;;;;;8325017;28;20621;-62
2023/01/29 19:27:20;;;;;;;13.82;10.13;;;;;;;;;;8328596;28;20029;-62
2023/01/29 19:31:20;;;;;;;14.57;9.40;;;;;;;;;;8327517;28;20481;-62
2023/01/29 19:35:20;;;;;;;16.00;10.27;;;;;;;;;;8331614;28;20025;-62
2023/01/29 19:39:21;;;;;;;14.50;9.65;;;;;;;;;;8327906;28;20301;-62
2023/01/29 19:43:21;;;;;;;16.02;10.70;;;;;;;;;;8330990;28;20029;-62
2023/01/29 19:47:21;;;;;;;19.25;11.95;;;;;;;;;;8330474;28;20146;-62
2023/01/29 19:51:22;;;;;;;15.17;10.37;;;;;;;;;;8330538;28;20021;-62
2023/01/29 19:55:22;;;;;;;16.95;10.77;;;;;;;;;;8331158;28;20268;-62
2023/01/29 19:59:22;;;;;;;16.70;10.30;;;;;;;;;;8330329;28;20029;-62
2023/01/29 20:03:23;;;;;;;15.40;10.75;;;;;;;;;;8326864;28;20295;-62
2023/01/29 20:07:23;;;;;;;15.75;10.10;;;;;;;;;;8329403;28;20020;-62
2023/01/29 20:11:24;;;;;;;17.42;11.25;;;;;;;;;;8329364;28;20168;-62
2023/01/29 20:15:24;;;;;;;17.00;11.15;;;;;;;;;;8328071;28;20041;-62
2023/01/29 20:19:24;;;;;;;17.60;10.68;;;;;;;;;;8324419;28;20115;-62
2023/01/29 20:23:25;;;;;;;18.02;11.43;;;;;;;;;;8319968;28;20361;-63
2023/01/29 20:27:25;;;;;;;18.38;11.55;;;;;;;;;;8319358;28;20029;-63
2023/01/29 20:31:25;;;;;;;17.33;11.15;;;;;;;;;;8318300;28;20770;-62
2023/01/29 20:35:27;;;;;;;21.35;12.65;;;;;;;;;;8314645;28;20104;-62
2023/01/29 20:39:27;;;;;;;20.17;12.57;;;;;;;;;;8316888;28;20040;-62
2023/01/29 20:43:27;;;;;;;22.45;14.35;;;;;;;;;;8312599;28;20806;-61
2023/01/29 20:47:29;;;;;;;20.20;12.82;;;;;;;;;;8318564;28;20080;-62
2023/01/29 20:51:29;;;;;;;19.17;12.43;;;;;;;;;;8318640;28;20040;-62
2023/01/29 20:55:30;;;;;;;19.60;13.30;;;;;;;;;;8319027;28;20020;-62
2023/01/29 20:59:30;;;;;;;17.67;11.35;;;;;;;;;;8318589;28;20457;-61
2023/01/29 21:03:30;;;;;;;17.85;10.93;;;;;;;;;;8320587;28;20029;-62
2023/01/29 21:07:31;;;;;;;16.90;10.98;;;;;;;;;;8318335;28;20027;-62
2023/01/29 21:11:32;;;;;;;18.23;10.57;;;;;;;;;;8319824;28;20019;-62
2023/01/29 21:15:32;;;;;;;16.02;10.23;;;;;;;;;;8317415;28;20047;-62
2023/01/29 21:19:32;;;;;;;17.67;9.90;;;;;;;;;;8317676;28;20541;-62
2023/01/29 21:23:32;;;;;;;16.15;9.60;;;;;;;;;;8319665;28;20021;-62
2023/01/29 21:27:33;;;;;;;16.58;10.30;;;;;;;;;;8318986;28;20040;-62
2023/01/29 21:31:33;;;;;;;13.80;8.88;;;;;;;;;;8315495;28;20130;-62
2023/01/29 21:35:35;;;;;;;17.02;9.55;;;;;;;;;;8317202;28;20029;-62
2023/01/29 21:39:35;;;;;;;13.75;8.88;;;;;;;;;;8318340;28;20029;-62
2023/01/29 21:43:36;;;;;;;17.33;11.07;;;;;;;;;;8320923;28;20033;-63
2023/01/29 21:47:36;;;;;;;14.02;9.00;;;;;;;;;;8321219;28;20029;-63
2023/01/29 21:51:36;;;;;;;12.90;8.00;;;;;;;;;;8323366;28;20513;-62
2023/01/29 21:55:36;;;;;;;14.02;8.95;;;;;;;;;;8321179;28;20021;-62
2023/01/29 21:59:37;;;;;;;16.88;10.30;;;;;;;;;;8320831;28;20060;-62
2023/01/29 22:03:37;;;;;;;13.80;8.95;;;;;;;;;;8320413;28;20040;-62
2023/01/29 22:07:37;;;;;;;14.30;9.32;;;;;;;;;;8324590;28;20017;-62
2023/01/29 22:11:38;;;;;;;20.02;9.55;;;;;;;;;;8324938;28;20032;-62
2023/01/29 22:15:38;;;;;;;16.90;10.68;;;;;;;;;;8324962;28;20120;-62
2023/01/29 22:19:39;;;;;;;15.88;10.10;;;;;;;;;;8328413;28;20021;-63
2023/01/29 22:23:39;;;;;;;15.50;9.95;;;;;;;;;;8326999;28;20499;-62
2023/01/29 22:27:39;;;;;;;17.85;10.80;;;;;;;;;;8327724;28;20462;-63
2023/01/29 22:31:39;;;;;;;15.70;9.80;;;;;;;;;;8325871;28;20040;-62
2023/01/29 22:35:39;;;;;;;15.15;9.63;;;;;;;;;;8324847;28;20043;-62
2023/01/29 22:39:40;;;;;;;14.13;9.15;;;;;;;;;;8326703;28;20016;-62
2023/01/29 22:43:40;;;;;;;17.35;10.85;;;;;;;;;;8325741;28;20480;-62
2023/01/29 22:47:40;;;;;;;15.67;10.00;;;;;;;;;;8325028;28;20580;-64
2023/01/29 22:51:40;;;;;;;15.15;9.50;;;;;;;;;;8326059;28;20632;-63
2023/01/29 22:55:40;;;;;;;17.00;10.77;;;;;;;;;;8327049;28;20098;-63
2023/01/29 22:59:40;;;;;;;18.63;10.63;;;;;;;;;;8325094;28;20025;-63
2023/01/29 23:03:41;;;;;;;16.48;10.25;;;;;;;;;;8326261;28;20092;-63
2023/01/29 23:07:41;;;;;;;19.48;11.13;;;;;;;;;;8325791;28;20049;-63
2023/01/29 23:11:41;;;;;;;15.57;9.45;;;;;;;;;;8324473;28;20102;-63
2023/01/29 23:15:41;;;;;;;17.90;10.63;;;;;;;;;;8324673;28;20032;-63
2023/01/29 23:19:41;;;;;;;17.42;9.88;;;;;;;;;;8323921;28;20027;-63
2023/01/29 23:23:41;;;;;;;15.82;10.20;;;;;;;;;;8324984;28;20522;-63
2023/01/29 23:27:42;;;;;;;19.08;11.52;;;;;;;;;;8326643;28;20253;-63
2023/01/29 23:31:42;;;;;;;16.10;9.90;;;;;;;;;;8323431;28;20029;-64
2023/01/29 23:35:42;;;;;;;17.83;10.63;;;;;;;;;;8324150;28;20287;-63
2023/01/29 23:39:42;;;;;;;24.77;10.68;;;;;;;;;;8324177;28;20103;-63
2023/01/29 23:43:42;;;;;;;16.80;10.88;;;;;;;;;;8322640;28;20454;-63
2023/01/29 23:47:42;;;;;;;14.63;9.02;;;;;;;;;;8323700;28;20041;-63
2023/01/29 23:51:44;;;;;;;15.77;9.30;;;;;;;;;;8330663;28;20557;-63
2023/01/29 23:55:54;;;;;;;15.63;9.65;;;;;;;;;;8332746;28;20097;-63
2023/01/29 23:59:54;;;;;;;14.35;9.48;;;;;;;;;;8330514;28;20028;-63
